Time;durP1;ratioP1;P1;durP2;ratioP2;P2;SDS_P1;SDS_P2;PMS_P1;PMS_P2;Temp;Humidity;BMP_temperature;BMP_pressure;BME280_temperature;BME280_humidity;BME280_pressure;Samples;Min_cycle;Max_cycle;Signal;HPM_P1;HPM_P2
2021/04/10 00:00:25;;;;;;;7.25;2.20;;;11.80;80.90;;;;;;5069455;28;20372;-69
2021/04/10 00:02:52;;;;;;;6.80;2.33;;;11.80;80.80;;;;;;5068141;28;20384;-67
2021/04/10 00:05:23;;;;;;;6.03;2.45;;;11.70;79.90;;;;;;5069080;28;20430;-68
2021/04/10 00:07:49;;;;;;;6.10;2.30;;;11.80;78.70;;;;;;5068259;28;20427;-68
2021/04/10 00:10:15;;;;;;;7.63;2.60;;;11.80;78.80;;;;;;5069349;28;20403;-68
2021/04/10 00:12:41;;;;;;;7.30;2.60;;;11.80;78.80;;;;;;5067820;28;20483;-69
2021/04/10 00:15:10;;;;;;;6.05;2.20;;;11.80;78.60;;;;;;5068258;28;21023;-61
2021/04/10 00:17:36;;;;;;;7.57;2.15;;;11.90;78.60;;;;;;5054631;28;21077;-68
2021/04/10 00:20:08;;;;;;;8.02;2.50;;;12.00;78.20;;;;;;5066580;28;20399;-69
2021/04/10 00:22:34;;;;;;;6.20;2.30;;;13.70;80.20;;;;;;5062425;28;20439;-70
2021/04/10 00:24:59;;;;;;;6.63;2.50;;;11.90;79.40;;;;;;5049707;28;20417;-66
2021/04/10 00:27:25;;;;;;;7.80;2.40;;;11.90;80.30;;;;;;5062331;28;20977;-69
2021/04/10 00:29:51;;;;;;;5.78;2.50;;;11.90;81.30;;;;;;5069986;28;20376;-68
2021/04/10 00:32:16;;;;;;;7.30;2.30;;;11.90;81.90;;;;;;5067186;28;20410;-68
2021/04/10 00:34:42;;;;;;;6.90;2.50;;;11.90;82.40;;;;;;5069339;28;20395;-69
2021/04/10 00:37:07;;;;;;;7.85;2.80;;;12.00;82.80;;;;;;5066958;28;20387;-62
2021/04/10 00:39:33;;;;;;;6.93;2.60;;;12.00;83.00;;;;;;5068013;28;20391;-68
2021/04/10 00:41:59;;;;;;;8.05;2.60;;;12.10;82.70;;;;;;5069114;28;20380;-68
2021/04/10 00:44:26;;;;;;;7.60;2.73;;;12.00;81.80;;;;;;5068800;28;20486;-70
2021/04/10 00:46:53;;;;;;;5.65;2.40;;;12.10;82.70;;;;;;5068217;28;20399;-68
2021/04/10 00:49:19;;;;;;;7.00;2.60;;;12.10;83.50;;;;;;5067019;28;20384;-69
2021/04/10 00:51:44;;;;;;;7.93;2.50;;;12.10;83.50;;;;;;5068339;28;20884;-70
2021/04/10 00:54:11;;;;;;;6.43;2.17;;;10.80;82.50;;;;;;5067123;28;20396;-61
2021/04/10 00:56:36;;;;;;;6.32;2.67;;;12.10;85.10;;;;;;5068789;28;20384;-69
2021/04/10 00:59:02;;;;;;;8.97;2.37;;;12.10;86.10;;;;;;5067608;28;20499;-68
2021/04/10 01:01:28;;;;;;;6.32;2.30;;;12.10;86.00;;;;;;5068308;28;20379;-68
2021/04/10 01:03:54;;;;;;;8.27;2.60;;;12.10;86.90;;;;;;5068581;28;20403;-70
2021/04/10 01:06:20;;;;;;;5.57;2.70;;;12.10;88.20;;;;;;5072537;28;20529;-69
2021/04/10 01:08:45;;;;;;;7.25;2.63;;;12.00;87.90;;;;;;5074320;28;20395;-66
2021/04/10 01:11:27;;;;;;;7.40;2.80;;;12.10;88.90;;;;;;5075209;28;20384;-65
2021/04/10 01:13:59;;;;;;;5.87;2.43;;;12.10;88.60;;;;;;5073663;28;20907;-69
2021/04/10 01:16:34;;;;;;;9.65;2.60;;;12.10;89.10;;;;;;5074037;28;20399;-70
2021/04/10 01:19:36;;;;;;;8.02;2.90;;;12.10;89.50;;;;;;5074374;28;20396;-69
2021/04/10 01:22:33;;;;;;;6.53;2.60;;;12.20;88.80;;;;;;5076008;28;20391;-70
2021/04/10 01:25:04;;;;;;;6.40;2.30;;;12.30;88.20;;;;;;5073397;28;20950;-69
2021/04/10 01:27:47;;;;;;;7.32;2.60;;;12.30;86.70;;;;;;5073936;28;20410;-69
2021/04/10 01:30:18;;;;;;;5.00;2.20;;;12.30;86.50;;;;;;5073173;28;20895;-65
2021/04/10 01:33:01;;;;;;;6.57;2.60;;;12.30;85.60;;;;;;5075175;28;20375;-70
2021/04/10 01:35:34;;;;;;;8.70;2.85;;;12.30;85.90;;;;;;5074037;28;20679;-68
2021/04/10 01:38:02;;;;;;;5.95;2.55;;;12.30;86.20;;;;;;5075195;28;20414;-69
2021/04/10 01:40:31;;;;;;;5.80;2.50;;;12.20;85.90;;;;;;5074458;28;20400;-68
2021/04/10 01:42:58;;;;;;;5.85;2.33;;;12.20;86.10;;;;;;5075094;28;20436;-69
2021/04/10 01:45:26;;;;;;;7.53;2.30;;;12.30;86.10;;;;;;5074555;28;20379;-68
2021/04/10 01:47:55;;;;;;;5.55;2.40;;;12.10;85.20;;;;;;5074540;28;20440;-70
2021/04/10 01:50:22;;;;;;;6.00;2.17;;;12.30;84.90;;;;;;5073007;28;20392;-71
2021/04/10 01:52:49;;;;;;;7.97;2.20;;;12.30;84.00;;;;;;5075431;28;20367;-69
2021/04/10 01:55:15;;;;;;;6.15;2.40;;;12.20;83.50;;;;;;5075254;28;20418;-69
2021/04/10 01:57:42;;;;;;;5.93;1.90;;;12.30;83.60;;;;;;5073425;28;20438;-69
2021/04/10 02:00:08;;;;;;;5.47;1.80;;;12.30;83.10;;;;;;5074405;28;20387;-62
2021/04/10 02:02:38;;;;;;;5.43;1.83;;;12.20;82.80;;;;;;5073560;28;20391;-69
2021/04/10 02:05:07;;;;;;;7.70;1.83;;;12.30;82.70;;;;;;5074991;28;20628;-70
2021/04/10 02:07:34;;;;;;;5.82;1.75;;;12.30;81.70;;;;;;5072780;28;20435;-69
2021/04/10 02:10:02;;;;;;;5.63;1.95;;;12.20;82.30;;;;;;5075069;28;20387;-68
2021/04/10 02:12:28;;;;;;;5.18;1.90;;;12.20;82.60;;;;;;5073901;28;20469;-69
2021/04/10 02:14:58;;;;;;;5.03;2.10;;;12.30;84.00;;;;;;5073944;28;20482;-69
2021/04/10 02:17:24;;;;;;;5.25;2.05;;;12.30;84.30;;;;;;5069903;28;20472;-70
2021/04/10 02:19:51;;;;;;;6.30;1.88;;;12.30;85.50;;;;;;5072123;28;20491;-69
2021/04/10 02:22:16;;;;;;;5.93;1.83;;;12.20;85.10;;;;;;5069489;28;20392;-68
2021/04/10 02:24:43;;;;;;;7.83;2.20;;;12.20;85.10;;;;;;5071099;28;20411;-68
2021/04/10 02:27:09;;;;;;;5.93;2.10;;;12.20;86.50;;;;;;5070700;28;20406;-61
2021/04/10 02:29:35;;;;;;;4.70;1.83;;;12.10;84.40;;;;;;5071462;28;20404;-69
2021/04/10 02:32:06;;;;;;;5.47;1.70;;;12.00;86.00;;;;;;5070329;28;20434;-68
2021/04/10 02:34:39;;;;;;;5.78;1.80;;;12.10;85.80;;;;;;5071236;28;20582;-69
2021/04/10 02:37:06;;;;;;;7.05;1.90;;;12.00;85.90;;;;;;5070303;28;20399;-69
2021/04/10 02:39:34;;;;;;;7.03;2.20;;;12.00;85.60;;;;;;5070995;28;20980;-69
2021/04/10 02:42:02;;;;;;;5.65;2.10;;;12.00;87.30;;;;;;5069763;28;20717;-65
2021/04/10 02:44:37;;;;;;;5.38;1.90;;;12.00;85.70;;;;;;5070597;28;20518;-69
2021/04/10 02:47:06;;;;;;;7.13;1.90;;;12.00;86.10;;;;;;5072071;28;20481;-69
2021/04/10 02:49:38;;;;;;;6.88;2.47;;;12.00;87.20;;;;;;5069455;28;20402;-69
2021/04/10 02:52:05;;;;;;;10.70;2.22;;;11.90;88.80;;;;;;5071824;28;20841;-69
2021/04/10 02:54:43;;;;;;;7.57;2.10;;;11.90;88.50;;;;;;5069061;28;20976;-70
2021/04/10 02:57:12;;;;;;;4.63;1.92;;;11.90;87.90;;;;;;5071687;28;20445;-69
2021/04/10 02:59:43;;;;;;;4.78;1.90;;;11.80;87.70;;;;;;5070753;28;20379;-69
2021/04/10 03:02:13;;;;;;;5.93;1.95;;;11.90;90.00;;;;;;5069010;28;20400;-62
2021/04/10 03:04:45;;;;;;;9.97;2.50;;;11.90;89.80;;;;;;5071342;28;20415;-70
2021/04/10 03:07:11;;;;;;;5.82;1.80;;;11.80;88.90;;;;;;5069031;28;20395;-61
2021/04/10 03:09:42;;;;;;;8.50;2.30;;;11.80;89.30;;;;;;5070731;28;20368;-70
2021/04/10 03:12:13;;;;;;;4.57;1.95;;;11.80;90.00;;;;;;5071324;28;20787;-69
2021/04/10 03:14:41;;;;;;;8.17;1.80;;;11.80;89.40;;;;;;5064547;28;20395;-69
2021/04/10 03:17:09;;;;;;;4.87;1.90;;;11.80;89.30;;;;;;5071092;28;20403;-69
2021/04/10 03:19:36;;;;;;;5.00;2.20;;;11.90;89.10;;;;;;5068096;28;20392;-68
2021/04/10 03:22:02;;;;;;;4.93;1.70;;;11.90;90.10;;;;;;5070279;28;20380;-69
2021/04/10 03:24:28;;;;;;;5.80;1.90;;;11.80;90.00;;;;;;5067669;28;20501;-70
2021/04/10 03:26:54;;;;;;;6.65;2.08;;;11.70;90.40;;;;;;5069588;28;20406;-71
2021/04/10 03:29:20;;;;;;;13.55;2.10;;;11.70;90.80;;;;;;5068522;28;20441;-69
2021/04/10 03:31:47;;;;;;;7.50;1.80;;;11.70;91.20;;;;;;5070586;28;20459;-68
2021/04/10 03:34:13;;;;;;;4.90;1.77;;;11.70;91.70;;;;;;5068319;28;20395;-61
2021/04/10 03:36:39;;;;;;;6.60;1.80;;;11.70;92.80;;;;;;5070425;28;20938;-66
2021/04/10 03:39:05;;;;;;;6.60;2.50;;;11.70;93.60;;;;;;5068324;28;20387;-68
2021/04/10 03:41:30;;;;;;;5.83;2.20;;;11.70;93.40;;;;;;5069376;28;20384;-69
2021/04/10 03:43:56;;;;;;;5.10;1.95;;;11.80;93.90;;;;;;5068825;28;20502;-69
2021/04/10 03:46:22;;;;;;;4.63;1.80;;;11.90;94.30;;;;;;5068198;28;20400;-69
2021/04/10 03:48:47;;;;;;;6.90;2.30;;;11.90;94.60;;;;;;5070299;28;20383;-68
2021/04/10 03:51:14;;;;;;;6.53;2.23;;;11.80;95.40;;;;;;5068304;28;20391;-61
2021/04/10 03:53:40;;;;;;;5.65;2.20;;;11.80;96.10;;;;;;5052610;28;20372;-69
2021/04/10 03:56:05;;;;;;;5.90;1.90;;;11.80;96.60;;;;;;5068847;28;20475;-63
2021/04/10 03:58:31;;;;;;;5.78;2.10;;;11.80;97.60;;;;;;5068758;28;20384;-71
2021/04/10 04:00:57;;;;;;;7.10;2.00;;;11.50;99.30;;;;;;5070454;28;20818;-71
2021/04/10 04:03:22;;;;;;;4.60;2.10;;;11.50;99.90;;;;;;5067968;28;20503;-71
2021/04/10 04:05:48;;;;;;;5.80;1.90;;;11.50;99.90;;;;;;5070399;28;20455;-71
2021/04/10 04:08:13;;;;;;;9.50;2.10;;;11.40;99.90;;;;;;5067732;28;20718;-64
2021/04/10 04:10:39;;;;;;;5.15;2.10;;;11.40;99.90;;;;;;5070311;28;20384;-71
2021/04/10 04:13:05;;;;;;;5.00;1.87;;;11.40;99.90;;;;;;5068058;28;20399;-71
2021/04/10 04:15:30;;;;;;;6.23;2.20;;;11.40;99.90;;;;;;5066559;28;20396;-70
2021/04/10 04:17:56;;;;;;;6.47;2.33;;;11.40;99.90;;;;;;5070152;28;20735;-71
2021/04/10 04:20:22;;;;;;;6.93;1.90;;;11.40;99.90;;;;;;5067408;28;20388;-70
2021/04/10 04:22:47;;;;;;;6.20;1.80;;;11.30;99.90;;;;;;5070167;28;20834;-71
2021/04/10 04:25:13;;;;;;;5.70;2.20;;;11.30;99.90;;;;;;5067713;28;20710;-62
2021/04/10 04:27:39;;;;;;;6.53;2.10;;;11.20;99.90;;;;;;5069444;28;20447;-72
2021/04/10 04:30:06;;;;;;;7.37;1.70;;;11.10;99.90;;;;;;5067943;28;20794;-69
2021/04/10 04:32:32;;;;;;;4.70;1.88;;;11.00;99.90;;;;;;5067806;28;20558;-71
2021/04/10 04:34:57;;;;;;;6.03;2.00;;;11.10;99.90;;;;;;5067766;28;20970;-67
2021/04/10 04:37:23;;;;;;;5.50;2.00;;;11.00;99.90;;;;;;5047989;28;20385;-71
2021/04/10 04:39:49;;;;;;;5.40;2.00;;;11.20;99.90;;;;;;5053059;28;20457;-71
2021/04/10 04:42:14;;;;;;;5.90;1.97;;;11.20;99.90;;;;;;5068370;28;20387;-63
2021/04/10 04:44:40;;;;;;;5.00;1.70;;;11.30;99.90;;;;;;5069780;28;20439;-71
2021/04/10 04:47:06;;;;;;;6.05;2.00;;;11.10;99.90;;;;;;5068031;28;20400;-71
2021/04/10 04:49:32;;;;;;;4.60;1.60;;;11.10;99.90;;;;;;5068350;28;20433;-69
2021/04/10 04:51:58;;;;;;;4.63;1.70;;;11.00;99.90;;;;;;5068646;28;20376;-69
2021/04/10 04:54:23;;;;;;;6.30;1.70;;;11.00;99.90;;;;;;5067665;28;20442;-68
2021/04/10 04:56:49;;;;;;;4.13;1.40;;;11.10;99.90;;;;;;5068070;28;20401;-69
2021/04/10 04:59:16;;;;;;;7.33;2.33;;;10.90;99.90;;;;;;5068856;28;20408;-64
2021/04/10 05:01:41;;;;;;;5.10;1.92;;;10.90;99.90;;;;;;5069601;28;20372;-70
2021/04/10 05:04:07;;;;;;;4.25;1.55;;;10.90;99.90;;;;;;5067864;28;20501;-72
2021/04/10 05:06:33;;;;;;;7.30;1.90;;;10.90;99.90;;;;;;5068289;28;20411;-69
2021/04/10 05:08:58;;;;;;;4.83;1.60;;;11.00;99.90;;;;;;5068507;28;20861;-70
2021/04/10 05:11:24;;;;;;;4.80;1.70;;;11.00;99.90;;;;;;5067540;28;20395;-71
2021/04/10 05:13:53;;;;;;;6.55;2.30;;;10.90;99.90;;;;;;5069213;28;20391;-72
2021/04/10 05:16:18;;;;;;;5.60;1.63;;;10.90;99.90;;;;;;5066020;28;20393;-70
2021/04/10 05:18:44;;;;;;;8.80;2.05;;;10.70;99.90;;;;;;5069288;28;20433;-71
2021/04/10 05:21:10;;;;;;;5.07;1.50;;;10.70;99.90;;;;;;5067194;28;20388;-66
2021/04/10 05:23:37;;;;;;;4.25;1.35;;;10.60;99.90;;;;;;5067747;28;20430;-70
2021/04/10 05:26:03;;;;;;;5.82;1.80;;;10.70;99.90;;;;;;5068303;28;20431;-70
2021/04/10 05:28:28;;;;;;;5.40;1.80;;;10.60;99.90;;;;;;5067868;28;20864;-71
2021/04/10 05:30:54;;;;;;;4.43;1.70;;;10.70;99.90;;;;;;5067591;28;20403;-70
2021/04/10 05:33:20;;;;;;;5.00;1.50;;;10.80;99.90;;;;;;5068719;28;20384;-69
2021/04/10 05:35:45;;;;;;;6.13;1.70;;;10.70;99.90;;;;;;5067638;28;20856;-70
2021/04/10 05:38:11;;;;;;;4.97;1.60;;;10.70;99.90;;;;;;5068821;28;20419;-72
2021/04/10 05:40:37;;;;;;;6.03;1.60;;;10.70;99.90;;;;;;5067245;28;20419;-72
2021/04/10 05:43:02;;;;;;;8.00;1.80;;;10.80;99.90;;;;;;5067928;28;20825;-70
2021/04/10 05:45:28;;;;;;;9.30;2.20;;;10.80;99.90;;;;;;5047980;28;21250;-70
2021/04/10 05:47:54;;;;;;;6.10;1.80;;;10.90;99.90;;;;;;5051051;28;20378;-71
2021/04/10 05:50:19;;;;;;;4.68;1.60;;;10.90;99.90;;;;;;5067543;28;20391;-71
2021/04/10 05:52:47;;;;;;;6.20;1.97;;;11.00;99.90;;;;;;5068110;28;20400;-70
2021/04/10 05:55:13;;;;;;;5.40;1.98;;;11.10;99.90;;;;;;5045142;28;20403;-63
2021/04/10 05:57:39;;;;;;;6.00;1.67;;;11.20;99.90;;;;;;5072585;28;20376;-71
2021/04/10 06:00:05;;;;;;;5.22;1.95;;;11.20;99.90;;;;;;5070826;28;20387;-69
2021/04/10 06:02:31;;;;;;;4.95;1.75;;;11.50;99.90;;;;;;5070746;28;20384;-71
2021/04/10 06:04:57;;;;;;;6.70;1.90;;;11.40;99.90;;;;;;5070933;28;20395;-69
2021/04/10 06:07:23;;;;;;;5.45;1.80;;;11.40;99.90;;;;;;5070256;28;20892;-72
2021/04/10 06:09:49;;;;;;;6.23;1.60;;;11.40;99.90;;;;;;5067954;28;20463;-69
2021/04/10 06:12:15;;;;;;;9.80;2.20;;;11.40;99.90;;;;;;5056652;28;20880;-71
2021/04/10 06:14:40;;;;;;;4.57;1.67;;;11.30;99.90;;;;;;5057896;28;20410;-72
2021/04/10 06:17:06;;;;;;;4.80;1.60;;;11.30;99.90;;;;;;5071849;28;20379;-71
2021/04/10 06:19:32;;;;;;;7.40;1.80;;;11.40;99.90;;;;;;5069867;28;20422;-70
2021/04/10 06:21:57;;;;;;;5.85;1.67;;;11.30;99.90;;;;;;5071505;28;20471;-71
2021/04/10 06:24:23;;;;;;;6.00;1.80;;;11.30;99.90;;;;;;5071223;28;20486;-71
2021/04/10 06:26:49;;;;;;;7.15;1.70;;;11.50;99.90;;;;;;5070024;28;20418;-68
2021/04/10 06:29:14;;;;;;;4.83;1.70;;;11.60;99.90;;;;;;5070208;28;20410;-62
2021/04/10 06:31:41;;;;;;;6.50;2.10;;;11.40;99.90;;;;;;5067122;28;20809;-70
2021/04/10 06:34:07;;;;;;;7.43;1.80;;;11.50;99.90;;;;;;5062774;28;20390;-70
2021/04/10 06:36:32;;;;;;;8.82;1.80;;;11.50;99.90;;;;;;5060103;28;21046;-71
2021/04/10 06:38:58;;;;;;;5.50;2.00;;;11.60;99.90;;;;;;5071295;28;20379;-69
2021/04/10 06:41:24;;;;;;;6.65;1.63;;;11.60;99.90;;;;;;5069017;28;20395;-71
2021/04/10 06:43:50;;;;;;;6.40;2.30;;;11.50;99.90;;;;;;5071215;28;20399;-71
2021/04/10 06:46:15;;;;;;;4.95;1.67;;;11.60;99.90;;;;;;5069515;28;20388;-64
2021/04/10 06:48:44;;;;;;;3.90;1.53;;;11.80;99.90;;;;;;5071519;28;20470;-71
2021/04/10 06:51:12;;;;;;;5.60;1.42;;;11.70;99.90;;;;;;5068884;28;20848;-70
2021/04/10 06:53:46;;;;;;;4.45;1.50;;;11.70;99.90;;;;;;5068859;28;20478;-70
2021/04/10 06:56:18;;;;;;;5.57;1.55;;;11.70;99.90;;;;;;5069631;28;20408;-70
2021/04/10 06:58:56;;;;;;;5.53;2.17;;;11.80;99.90;;;;;;5071356;28;20379;-68
2021/04/10 07:01:21;;;;;;;5.32;1.90;;;11.70;99.90;;;;;;5068379;28;20395;-71
2021/04/10 07:03:51;;;;;;;4.88;1.98;;;11.80;99.90;;;;;;5064623;28;20790;-69
2021/04/10 07:06:18;;;;;;;7.63;1.90;;;11.90;99.90;;;;;;5062936;28;20408;-59
2021/04/10 07:08:44;;;;;;;4.50;1.60;;;12.10;99.90;;;;;;5068159;28;20383;-67
2021/04/10 07:11:09;;;;;;;5.70;2.00;;;11.90;99.90;;;;;;5063679;28;20387;-65
2021/04/10 07:13:35;;;;;;;4.90;1.50;;;11.90;99.90;;;;;;5069747;28;20937;-63
2021/04/10 07:16:02;;;;;;;5.43;1.40;;;11.80;99.90;;;;;;5070038;28;20745;-70
2021/04/10 07:18:29;;;;;;;4.13;1.50;;;11.70;99.90;;;;;;5065751;28;20448;-65
2021/04/10 07:21:13;;;;;;;6.38;1.70;;;11.70;99.90;;;;;;5069575;28;20387;-71
2021/04/10 07:23:57;;;;;;;5.00;2.13;;;11.60;99.90;;;;;;5064170;28;20434;-66
2021/04/10 07:26:55;;;;;;;5.30;1.60;;;11.90;99.90;;;;;;5043683;28;20814;-69
2021/04/10 07:29:31;;;;;;;5.53;1.90;;;11.90;99.90;;;;;;5056405;28;20411;-69
2021/04/10 07:31:58;;;;;;;6.40;2.15;;;12.00;99.90;;;;;;5067231;28;20395;-66
2021/04/10 07:34:25;;;;;;;6.30;1.80;;;11.90;99.90;;;;;;5069560;28;20963;-67
2021/04/10 07:37:01;;;;;;;4.80;1.63;;;11.90;99.90;;;;;;5068782;28;20423;-67
2021/04/10 07:39:27;;;;;;;5.20;2.00;;;11.90;99.90;;;;;;5066204;28;20453;-68
2021/04/10 07:42:03;;;;;;;5.17;2.77;;;11.80;99.90;;;;;;5070173;28;20372;-68
2021/04/10 07:44:40;;;;;;;5.17;1.90;;;11.70;99.90;;;;;;5067074;28;20411;-66
2021/04/10 07:47:08;;;;;;;5.90;1.70;;;11.60;99.90;;;;;;5068716;28;20466;-67
2021/04/10 07:49:35;;;;;;;6.55;2.10;;;11.60;99.90;;;;;;5066668;28;20420;-70
2021/04/10 07:52:04;;;;;;;5.78;1.60;;;11.60;99.90;;;;;;5068311;28;20430;-66
2021/04/10 07:54:39;;;;;;;4.20;1.60;;;11.60;99.90;;;;;;5069472;28;20379;-69
2021/04/10 07:57:09;;;;;;;7.27;1.93;;;11.70;99.90;;;;;;5068483;28;20403;-68
2021/04/10 07:59:50;;;;;;;4.30;1.50;;;11.60;99.90;;;;;;5063707;28;21223;-68
2021/04/10 08:02:17;;;;;;;6.00;1.80;;;11.60;99.90;;;;;;5068279;28;20399;-61
2021/04/10 08:05:00;;;;;;;5.53;1.60;;;11.50;99.90;;;;;;5069660;28;20442;-68
2021/04/10 08:07:27;;;;;;;5.30;1.90;;;11.60;99.90;;;;;;5064281;28;20430;-66
2021/04/10 08:10:04;;;;;;;5.13;1.90;;;11.60;99.90;;;;;;5067350;28;20376;-67
2021/04/10 08:12:32;;;;;;;5.10;1.90;;;11.50;99.90;;;;;;5061852;28;20872;-67
2021/04/10 08:14:58;;;;;;;6.32;1.67;;;11.50;99.90;;;;;;5063752;28;20384;-67
2021/04/10 08:17:35;;;;;;;5.40;1.98;;;11.50;99.90;;;;;;5063378;28;20384;-65
2021/04/10 08:20:21;;;;;;;6.32;1.90;;;11.50;99.90;;;;;;5063128;28;20393;-67
2021/04/10 08:22:47;;;;;;;4.82;2.03;;;11.60;99.90;;;;;;5061209;28;20382;-66
2021/04/10 08:25:27;;;;;;;5.10;1.50;;;11.50;99.90;;;;;;5042459;28;20423;-67
2021/04/10 08:27:53;;;;;;;5.55;1.70;;;11.50;99.90;;;;;;5064442;28;20411;-67
2021/04/10 08:30:20;;;;;;;6.05;1.90;;;11.50;99.90;;;;;;5061472;28;20400;-62
2021/04/10 08:32:45;;;;;;;6.13;1.60;;;11.60;99.90;;;;;;5067057;28;20383;-70
2021/04/10 08:35:11;;;;;;;9.50;2.40;;;11.40;99.90;;;;;;5066413;28;20391;-70
2021/04/10 08:37:37;;;;;;;6.97;1.90;;;11.40;99.90;;;;;;5051626;28;20403;-72
2021/04/10 08:40:03;;;;;;;5.70;2.00;;;11.40;99.90;;;;;;5063897;28;20744;-69
2021/04/10 08:42:29;;;;;;;6.93;2.30;;;11.40;99.90;;;;;;5066582;28;20416;-69
2021/04/10 08:44:56;;;;;;;5.38;2.00;;;11.50;99.90;;;;;;5059896;28;20859;-68
2021/04/10 08:47:23;;;;;;;5.15;1.75;;;11.60;99.90;;;;;;5066756;28;20404;-65
2021/04/10 08:49:51;;;;;;;4.90;1.83;;;11.60;99.90;;;;;;5062676;28;20844;-70
2021/04/10 08:52:23;;;;;;;3.90;1.57;;;11.60;99.90;;;;;;5058888;28;20768;-65
2021/04/10 08:54:50;;;;;;;6.75;2.00;;;11.70;99.90;;;;;;5058960;28;20427;-71
2021/04/10 08:57:16;;;;;;;4.97;1.77;;;11.80;99.90;;;;;;5045441;28;20406;-67
2021/04/10 08:59:46;;;;;;;6.10;1.85;;;11.70;99.90;;;;;;5061579;28;20407;-67
2021/04/10 09:02:19;;;;;;;4.80;1.70;;;11.70;99.90;;;;;;5064613;28;20400;-69
2021/04/10 09:05:05;;;;;;;4.82;1.63;;;11.80;99.90;;;;;;5059371;28;20492;-65
2021/04/10 09:07:49;;;;;;;5.57;1.50;;;11.90;99.90;;;;;;5063844;28;20483;-71
2021/04/10 09:10:24;;;;;;;4.57;1.60;;;12.00;99.90;;;;;;5064736;28;20733;-65
2021/04/10 09:13:01;;;;;;;7.25;1.83;;;12.10;99.90;;;;;;5069135;28;20383;-66
2021/04/10 09:15:27;;;;;;;6.00;1.90;;;12.10;99.90;;;;;;5066092;28;20425;-66
2021/04/10 09:17:57;;;;;;;4.60;1.60;;;12.20;99.90;;;;;;5063445;28;20389;-68
2021/04/10 09:20:44;;;;;;;5.45;1.50;;;12.20;99.90;;;;;;5061978;28;20476;-65
2021/04/10 09:23:22;;;;;;;5.95;1.70;;;12.40;99.90;;;;;;5066292;28;20383;-68
2021/04/10 09:26:12;;;;;;;5.40;1.70;;;12.50;99.90;;;;;;5066517;28;20403;-65
2021/04/10 09:28:55;;;;;;;5.23;1.60;;;12.60;99.90;;;;;;5067607;28;20893;-66
2021/04/10 09:31:40;;;;;;;4.80;1.60;;;11.70;99.90;;;;;;5068754;28;20793;-63
2021/04/10 09:34:45;;;;;;;5.60;2.10;;;12.60;99.90;;;;;;5067633;28;20401;-68
2021/04/10 09:37:12;;;;;;;4.47;1.38;;;12.50;99.90;;;;;;5069706;28;20731;-64
2021/04/10 09:39:57;;;;;;;4.07;1.20;;;12.40;99.90;;;;;;5062477;28;20940;-67
2021/04/10 09:42:38;;;;;;;4.10;1.30;;;12.20;99.90;;;;;;5065088;28;20776;-60
2021/04/10 09:45:16;;;;;;;3.90;1.50;;;12.30;99.90;;;;;;5066814;28;20420;-65
2021/04/10 09:48:12;;;;;;;4.50;1.40;;;12.60;99.90;;;;;;5063686;28;20400;-63
2021/04/10 09:50:43;;;;;;;5.63;1.40;;;13.00;99.90;;;;;;5064363;28;20493;-67
2021/04/10 09:53:16;;;;;;;6.30;1.70;;;13.10;99.90;;;;;;5066442;28;20881;-69
2021/04/10 09:55:44;;;;;;;4.30;1.60;;;13.40;99.90;;;;;;5068513;28;20399;-65
2021/04/10 09:58:10;;;;;;;4.20;1.40;;;13.40;99.90;;;;;;5062085;28;20449;-65
2021/04/10 10:00:45;;;;;;;4.50;1.30;;;13.40;99.90;;;;;;5069136;28;22518;-68
2021/04/10 10:03:17;;;;;;;3.97;1.30;;;13.40;99.90;;;;;;5068337;28;20407;-67
2021/04/10 10:05:44;;;;;;;3.60;1.20;;;13.40;99.90;;;;;;5065532;28;20454;-67
2021/04/10 10:08:15;;;;;;;3.80;1.10;;;13.30;99.90;;;;;;5065245;28;20478;-64
2021/04/10 10:10:42;;;;;;;7.95;1.40;;;13.10;99.90;;;;;;5067888;28;20392;-66
2021/04/10 10:13:18;;;;;;;3.92;1.15;;;13.00;99.90;;;;;;5068256;28;20395;-63
2021/04/10 10:15:45;;;;;;;5.30;1.37;;;13.10;99.90;;;;;;5061585;28;20729;-65
2021/04/10 10:18:13;;;;;;;5.80;1.30;;;13.30;99.90;;;;;;5068920;28;20460;-65
2021/04/10 10:20:40;;;;;;;4.68;1.40;;;13.40;99.90;;;;;;5068631;28;20399;-63
2021/04/10 10:23:17;;;;;;;3.53;1.00;;;13.40;99.90;;;;;;5065992;28;20502;-71
2021/04/10 10:25:43;;;;;;;3.70;1.30;;;13.60;99.90;;;;;;5067074;28;20461;-65
2021/04/10 10:28:13;;;;;;;4.60;1.40;;;13.50;99.90;;;;;;5069457;28;20408;-65
2021/04/10 10:30:39;;;;;;;4.70;1.30;;;13.60;99.90;;;;;;5067723;28;20394;-66
2021/04/10 10:33:06;;;;;;;4.32;1.30;;;13.70;99.90;;;;;;5068703;28;20725;-69
2021/04/10 10:35:33;;;;;;;4.78;1.58;;;13.90;99.90;;;;;;5066889;28;20936;-67
2021/04/10 10:38:06;;;;;;;4.63;1.70;;;14.10;99.90;;;;;;5063820;28;20420;-68
2021/04/10 10:40:33;;;;;;;5.90;1.30;;;14.00;99.90;;;;;;5054532;28;20438;-67
2021/04/10 10:43:06;;;;;;;5.07;1.58;;;14.00;99.90;;;;;;5062853;28;20389;-66
2021/04/10 10:45:39;;;;;;;5.43;1.20;;;14.00;99.90;;;;;;5059442;28;20438;-69
2021/04/10 10:48:20;;;;;;;7.57;1.60;;;14.00;99.90;;;;;;5062475;28;20469;-68
2021/04/10 10:50:47;;;;;;;4.50;1.40;;;14.10;99.90;;;;;;5064464;28;20564;-69
2021/04/10 10:53:21;;;;;;;4.10;1.10;;;14.20;99.90;;;;;;5069020;28;20491;-67
2021/04/10 10:56:26;;;;;;;4.90;1.52;;;14.30;99.90;;;;;;5055329;28;20873;-69
2021/04/10 10:59:02;;;;;;;4.20;1.50;;;14.40;99.90;;;;;;5068570;28;20395;-69
2021/04/10 11:01:36;;;;;;;4.60;1.20;;;14.30;99.90;;;;;;5065283;28;20910;-65
2021/04/10 11:04:20;;;;;;;4.20;1.50;;;14.50;99.90;;;;;;5057336;28;20973;-65
2021/04/10 11:06:47;;;;;;;3.85;1.30;;;14.60;99.90;;;;;;5058933;28;20431;-65
2021/04/10 11:09:22;;;;;;;4.60;1.30;;;14.60;99.90;;;;;;5060618;28;20393;-68
2021/04/10 11:11:49;;;;;;;5.38;1.30;;;14.70;99.90;;;;;;5056140;28;20407;-64
2021/04/10 11:14:25;;;;;;;4.32;1.33;;;15.20;99.90;;;;;;5066358;28;20399;-71
2021/04/10 11:16:52;;;;;;;5.10;1.50;;;15.50;99.90;;;;;;5063718;28;20730;-68
2021/04/10 11:19:32;;;;;;;5.88;1.70;;;15.50;99.90;;;;;;5063248;28;20665;-69
2021/04/10 11:21:59;;;;;;;5.50;1.50;;;15.70;99.70;;;;;;5059343;28;20380;-68
2021/04/10 11:24:39;;;;;;;4.15;1.25;;;15.90;99.50;;;;;;5063264;28;20469;-62
2021/04/10 11:27:20;;;;;;;5.30;1.33;;;16.00;98.70;;;;;;5055350;28;20453;-66
2021/04/10 11:29:51;;;;;;;4.20;1.50;;;16.40;98.70;;;;;;5059168;28;20413;-68
2021/04/10 11:32:24;;;;;;;4.85;1.50;;;16.40;97.30;;;;;;5065493;28;20560;-69
2021/04/10 11:34:49;;;;;;;4.25;1.40;;;16.50;96.30;;;;;;5066692;28;20884;-66
2021/04/10 11:37:17;;;;;;;4.17;1.30;;;16.70;96.10;;;;;;5070034;28;20380;-62
2021/04/10 11:40:03;;;;;;;5.10;1.75;;;17.20;95.20;;;;;;5066244;28;21092;-68
2021/04/10 11:42:43;;;;;;;4.60;1.70;;;17.50;94.30;;;;;;5070146;28;20510;-68
2021/04/10 11:45:25;;;;;;;4.88;1.50;;;17.30;93.60;;;;;;5062351;28;20419;-62
2021/04/10 11:48:08;;;;;;;4.82;1.67;;;17.40;94.50;;;;;;5056248;28;20419;-67
2021/04/10 11:50:41;;;;;;;4.70;1.90;;;17.60;93.90;;;;;;5064019;28;20384;-63
2021/04/10 11:53:35;;;;;;;4.50;1.70;;;17.70;93.30;;;;;;5061766;28;20410;-63
2021/04/10 11:56:21;;;;;;;4.93;1.80;;;17.90;92.40;;;;;;5064443;28;20400;-64
2021/04/10 11:58:46;;;;;;;6.90;2.10;;;18.10;92.30;;;;;;5061850;28;20476;-63
2021/04/10 12:01:13;;;;;;;6.55;1.65;;;18.20;91.60;;;;;;5066154;28;21390;-64
2021/04/10 12:03:56;;;;;;;5.00;1.65;;;17.70;91.70;;;;;;5061751;28;20403;-66
2021/04/10 12:06:35;;;;;;;4.90;1.80;;;17.60;91.90;;;;;;5067818;28;20404;-65
2021/04/10 12:09:12;;;;;;;4.30;1.60;;;17.10;92.30;;;;;;5063620;28;20487;-67
2021/04/10 12:11:39;;;;;;;4.80;1.60;;;16.90;93.80;;;;;;5067272;28;20384;-66
2021/04/10 12:14:13;;;;;;;4.47;1.70;;;16.90;93.50;;;;;;5059538;28;20386;-65
2021/04/10 12:16:40;;;;;;;4.93;1.67;;;18.10;94.00;;;;;;5057996;28;20449;-66
2021/04/10 12:19:07;;;;;;;5.32;1.60;;;18.10;92.00;;;;;;5065028;28;20384;-62
2021/04/10 12:21:34;;;;;;;5.50;2.13;;;18.40;90.50;;;;;;5063693;28;20416;-65
2021/04/10 12:23:59;;;;;;;4.90;1.50;;;18.60;90.50;;;;;;5062725;28;20409;-65
2021/04/10 12:26:25;;;;;;;5.10;1.67;;;18.70;89.50;;;;;;5059236;28;20400;-59
2021/04/10 12:28:51;;;;;;;6.22;1.70;;;18.60;88.50;;;;;;5056914;28;20807;-69
2021/04/10 12:31:17;;;;;;;5.10;1.57;;;18.80;88.40;;;;;;5056486;28;20800;-63
2021/04/10 12:33:44;;;;;;;4.93;1.60;;;18.70;85.80;;;;;;5064784;28;20390;-63
2021/04/10 12:36:11;;;;;;;6.50;1.70;;;19.00;86.40;;;;;;5060655;28;20527;-68
2021/04/10 12:38:37;;;;;;;5.03;1.88;;;19.10;86.80;;;;;;5064030;28;20391;-67
2021/04/10 12:41:03;;;;;;;6.82;2.38;;;19.20;85.00;;;;;;5067336;28;20947;-64
2021/04/10 12:43:29;;;;;;;4.70;2.10;;;19.30;85.50;;;;;;5058078;28;20445;-64
2021/04/10 12:45:55;;;;;;;6.20;2.10;;;19.60;83.70;;;;;;5069864;28;20826;-65
2021/04/10 12:48:20;;;;;;;5.50;1.80;;;19.30;82.40;;;;;;5069274;28;20387;-66
2021/04/10 12:50:46;;;;;;;7.00;2.00;;;19.00;83.90;;;;;;5049388;28;20400;-62
2021/04/10 12:53:12;;;;;;;6.20;2.83;;;19.00;84.30;;;;;;5051677;28;20384;-64
2021/04/10 12:55:38;;;;;;;4.82;1.85;;;19.40;83.80;;;;;;5067072;28;21008;-65
2021/04/10 12:58:04;;;;;;;5.60;1.70;;;19.70;81.80;;;;;;5069502;28;20391;-63
2021/04/10 13:00:30;;;;;;;6.93;2.10;;;19.40;81.70;;;;;;5066766;28;20776;-63